Terminal Aerodrome Forecast
Issued by NWS

Home | Current Version | Previous Version | Text Only | Print | Product List | Glossary On
Versions: 1 2 3 4 5 6 7 8 9 10 11 12 13 14 15 16 17 18 19 20 21 22 23 24 25
000
FTUS46 KOTX 300522
TAFPUW
TAF
KPUW 300522Z 3006/3106 26010KT P6SM SCT150 BKN200
     FM300800 26007KT P6SM SCT080 BKN150
     FM301400 26010KT P6SM FEW025 SCT050 BKN100
     FM301800 26012G17KT P6SM SCT050 BKN080=

USA.gov is the U.S. government's official web portal to all federal, state and local government web resources and services.